Acme, WA (98220)

12:28 PM PDT on August 04, 2015 (GMT -0700)
Sudden Valley/Lake Whatcom | | Change Station
CLOSE
Current Station
Personal Weather Station
Location: Bellingham, WA
Elevation: 648 ft
Nearby Weather Stations

Elev 648 ft 48.70 °N, 122.32 °W | Updated 4 seconds ago

Partly Cloudy
Partly Cloudy
70.2 °F
Feels Like 76 °F
N
3.0
Wind Variable Wind from NNE
Gusts 3.0 mph

Today
High -- | Low -- °F
--% Chance of Precip.
Yesterday
High -- | Low -- °F
Precip. -- in
5:46 AM 8:42 PM
Waning Gibbous, 75% visible
Pressure 30.00 in
Visibility 10.0 miles
Clouds Clear
Heat Index 76 °F
Dew Point 56 °F
Humidity 62%
Rainfall 0.00 in
Snow Depth Not available.
UV 8 out of 12
Pollen 4.40 out of 12
Air Quality Not available.
Flu Activity Not available.
METAR KBLI 041853Z VRB06KT 10SM CLR 21/12 A2999 RMK AO2 SLP159 T02060122 $

More Conditions Fewer Conditions

Pressure 30.00 in
Visibility 10.0 miles
Clouds Clear
Heat Index 76 °F
Dew Point 56 °F
Humidity 62%
Rainfall 0.00 in
Snow Depth Not available.
UV 8 out of 12
Pollen 4.40 out of 12
Air Quality Not available.
Flu Activity Not available.
METAR KBLI 041853Z VRB06KT 10SM CLR 21/12 A2999 RMK AO2 SLP159 T02060122 $

More Conditions Fewer Conditions

10-Day Weather Forecast

×

Almanac

Astronomy

Aug. 04, 2015 Rise Set
Actual Time
Civil Twilight
Nautical Twilight
Astronomical Twilight
Moon
Length of Visible Light
Length of Day
Tomorrow will be .
, % of the Moon is Illuminated

Today's Extremes

State Highs State Lows

Community

WunderPhotos

Upload Photos

1,843,954 photos uploaded!

WunderBlogs® & News

Nearby

Air Quality

  Air Quality AQ Index Pollutant
Not available.

Snow Depth

Station Depth Elevation

Earthquake Activity

City Distance Mag. Time & Date
Minimum magnitude displayed is 2.5.

Coastal Water Temperatures

Place Temperature

Stations

Nearby Weather Stations

Station Location Temp. Windchill Dew Point Humidity Wind Precip. Elev Updated Type